sensor_id;sensor_type;location;lat;lon;timestamp;pressure;altitude;pressure_sealevel;temperature;humidity
9717;BME280;4897;43.570;27.832;2022-07-12T00:00:40;99174.25;;;17.93;100.00
9717;BME280;4897;43.570;27.832;2022-07-12T00:03:08;99175.72;;;18.04;100.00
9717;BME280;4897;43.570;27.832;2022-07-12T00:05:35;99160.41;;;17.88;100.00
9717;BME280;4897;43.570;27.832;2022-07-12T00:08:03;99116.72;;;17.69;100.00
9717;BME280;4897;43.570;27.832;2022-07-12T00:10:31;99189.28;;;17.96;100.00
9717;BME280;4897;43.570;27.832;2022-07-12T00:12:58;99170.50;;;17.94;100.00
9717;BME280;4897;43.570;27.832;2022-07-12T00:15:26;99174.72;;;17.97;100.00
9717;BME280;4897;43.570;27.832;2022-07-12T00:17:52;99168.66;;;17.95;100.00
9717;BME280;4897;43.570;27.832;2022-07-12T00:20:21;99118.47;;;17.53;100.00
9717;BME280;4897;43.570;27.832;2022-07-12T00:22:48;99157.09;;;17.70;100.00
9717;BME280;4897;43.570;27.832;2022-07-12T00:25:15;99184.13;;;17.78;100.00
9717;BME280;4897;43.570;27.832;2022-07-12T00:27:42;99174.34;;;17.77;100.00
9717;BME280;4897;43.570;27.832;2022-07-12T00:30:10;99167.59;;;17.65;100.00
9717;BME280;4897;43.570;27.832;2022-07-12T00:32:37;99163.91;;;17.58;100.00
9717;BME280;4897;43.570;27.832;2022-07-12T00:35:05;99172.84;;;17.58;100.00
9717;BME280;4897;43.570;27.832;2022-07-12T00:37:34;99174.06;;;17.56;100.00
9717;BME280;4897;43.570;27.832;2022-07-12T00:40:01;99152.28;;;17.41;100.00
9717;BME280;4897;43.570;27.832;2022-07-12T00:42:28;99165.09;;;17.47;100.00
9717;BME280;4897;43.570;27.832;2022-07-12T00:44:55;99168.13;;;17.44;100.00
9717;BME280;4897;43.570;27.832;2022-07-12T00:47:32;99168.34;;;17.35;100.00
9717;BME280;4897;43.570;27.832;2022-07-12T00:50:03;99169.84;;;17.29;100.00
9717;BME280;4897;43.570;27.832;2022-07-12T00:52:30;99171.22;;;17.33;100.00
9717;BME280;4897;43.570;27.832;2022-07-12T00:54:59;99144.91;;;17.11;100.00
9717;BME280;4897;43.570;27.832;2022-07-12T00:57:26;99097.16;;;16.88;100.00
9717;BME280;4897;43.570;27.832;2022-07-12T00:59:54;99170.03;;;17.28;100.00
9717;BME280;4897;43.570;27.832;2022-07-12T01:02:24;99159.25;;;17.20;100.00
9717;BME280;4897;43.570;27.832;2022-07-12T01:04:56;99169.38;;;17.26;100.00
9717;BME280;4897;43.570;27.832;2022-07-12T01:07:25;99156.88;;;17.25;100.00
9717;BME280;4897;43.570;27.832;2022-07-12T01:09:53;99164.63;;;17.28;100.00
9717;BME280;4897;43.570;27.832;2022-07-12T01:12:22;99117.41;;;17.08;100.00
9717;BME280;4897;43.570;27.832;2022-07-12T01:14:51;99158.38;;;17.35;100.00
9717;BME280;4897;43.570;27.832;2022-07-12T01:17:20;99148.09;;;17.23;100.00
9717;BME280;4897;43.570;27.832;2022-07-12T01:19:47;99161.22;;;17.42;100.00
9717;BME280;4897;43.570;27.832;2022-07-12T01:22:17;99162.41;;;17.47;100.00
9717;BME280;4897;43.570;27.832;2022-07-12T01:24:46;99165.63;;;17.43;100.00
9717;BME280;4897;43.570;27.832;2022-07-12T01:27:13;99164.44;;;17.45;100.00
9717;BME280;4897;43.570;27.832;2022-07-12T01:29:40;99169.16;;;17.43;100.00
9717;BME280;4897;43.570;27.832;2022-07-12T01:32:07;99164.06;;;17.48;100.00
9717;BME280;4897;43.570;27.832;2022-07-12T01:34:50;99167.28;;;17.44;100.00
9717;BME280;4897;43.570;27.832;2022-07-12T01:37:18;99146.03;;;17.41;100.00
9717;BME280;4897;43.570;27.832;2022-07-12T01:39:50;99172.72;;;17.52;100.00
9717;BME280;4897;43.570;27.832;2022-07-12T01:42:17;99147.38;;;17.53;100.00
9717;BME280;4897;43.570;27.832;2022-07-12T01:44:44;99041.28;;;16.88;100.00
9717;BME280;4897;43.570;27.832;2022-07-12T01:47:11;99166.28;;;17.53;100.00
9717;BME280;4897;43.570;27.832;2022-07-12T01:49:41;99164.91;;;17.49;100.00
9717;BME280;4897;43.570;27.832;2022-07-12T01:52:11;99153.63;;;17.29;100.00
9717;BME280;4897;43.570;27.832;2022-07-12T01:54:39;99167.81;;;17.31;100.00
9717;BME280;4897;43.570;27.832;2022-07-12T01:57:07;99162.97;;;17.19;100.00
9717;BME280;4897;43.570;27.832;2022-07-12T01:59:35;99150.47;;;17.18;100.00
9717;BME280;4897;43.570;27.832;2022-07-12T02:02:03;99168.38;;;17.19;100.00
9717;BME280;4897;43.570;27.832;2022-07-12T02:04:30;99167.88;;;17.07;100.00
9717;BME280;4897;43.570;27.832;2022-07-12T02:06:57;99170.09;;;17.04;100.00
9717;BME280;4897;43.570;27.832;2022-07-12T02:09:24;99107.50;;;16.52;100.00
9717;BME280;4897;43.570;27.832;2022-07-12T02:11:54;99166.03;;;17.08;100.00
9717;BME280;4897;43.570;27.832;2022-07-12T02:14:22;99177.84;;;17.23;100.00
9717;BME280;4897;43.570;27.832;2022-07-12T02:16:50;99174.59;;;17.27;100.00
9717;BME280;4897;43.570;27.832;2022-07-12T02:19:16;99167.69;;;17.25;100.00
9717;BME280;4897;43.570;27.832;2022-07-12T02:21:43;99173.28;;;17.15;100.00
9717;BME280;4897;43.570;27.832;2022-07-12T02:24:13;99151.69;;;16.91;100.00
9717;BME280;4897;43.570;27.832;2022-07-12T02:26:39;99160.78;;;16.98;100.00
9717;BME280;4897;43.570;27.832;2022-07-12T02:29:06;99158.97;;;16.83;100.00
9717;BME280;4897;43.570;27.832;2022-07-12T02:31:35;99153.53;;;16.91;100.00
9717;BME280;4897;43.570;27.832;2022-07-12T02:34:01;99165.53;;;17.04;100.00
9717;BME280;4897;43.570;27.832;2022-07-12T02:36:29;99162.81;;;16.88;100.00
9717;BME280;4897;43.570;27.832;2022-07-12T02:38:57;99161.31;;;16.86;100.00
9717;BME280;4897;43.570;27.832;2022-07-12T02:41:28;99174.28;;;16.98;100.00
9717;BME280;4897;43.570;27.832;2022-07-12T02:43:55;99183.94;;;17.01;100.00
9717;BME280;4897;43.570;27.832;2022-07-12T02:46:22;99180.22;;;17.10;100.00
9717;BME280;4897;43.570;27.832;2022-07-12T02:48:52;99188.47;;;17.00;100.00
9717;BME280;4897;43.570;27.832;2022-07-12T02:51:24;99176.19;;;16.98;100.00
9717;BME280;4897;43.570;27.832;2022-07-12T02:53:51;99182.94;;;17.02;100.00
9717;BME280;4897;43.570;27.832;2022-07-12T02:56:18;99186.97;;;17.14;100.00
9717;BME280;4897;43.570;27.832;2022-07-12T02:58:45;99181.56;;;16.82;100.00
9717;BME280;4897;43.570;27.832;2022-07-12T03:01:12;99196.41;;;17.26;100.00
9717;BME280;4897;43.570;27.832;2022-07-12T03:03:39;99197.72;;;17.30;100.00
9717;BME280;4897;43.570;27.832;2022-07-12T03:06:08;99194.00;;;17.39;100.00
9717;BME280;4897;43.570;27.832;2022-07-12T03:08:35;99198.75;;;17.37;100.00
9717;BME280;4897;43.570;27.832;2022-07-12T03:11:01;99200.25;;;17.47;100.00
9717;BME280;4897;43.570;27.832;2022-07-12T03:13:28;99192.31;;;17.54;100.00
9717;BME280;4897;43.570;27.832;2022-07-12T03:15:56;99193.31;;;17.53;100.00
9717;BME280;4897;43.570;27.832;2022-07-12T03:18:23;99180.88;;;17.20;100.00
9717;BME280;4897;43.570;27.832;2022-07-12T03:20:49;99125.88;;;16.81;100.00
9717;BME280;4897;43.570;27.832;2022-07-12T03:23:18;99205.53;;;17.09;100.00
9717;BME280;4897;43.570;27.832;2022-07-12T03:25:45;99208.41;;;17.15;100.00
9717;BME280;4897;43.570;27.832;2022-07-12T03:28:12;99209.06;;;17.25;100.00
9717;BME280;4897;43.570;27.832;2022-07-12T03:30:39;99207.53;;;17.39;100.00
9717;BME280;4897;43.570;27.832;2022-07-12T03:33:05;99160.28;;;17.03;100.00
9717;BME280;4897;43.570;27.832;2022-07-12T03:35:33;99174.97;;;17.00;100.00
9717;BME280;4897;43.570;27.832;2022-07-12T03:38:00;99108.69;;;16.57;100.00
9717;BME280;4897;43.570;27.832;2022-07-12T03:40:33;99208.22;;;17.33;100.00
9717;BME280;4897;43.570;27.832;2022-07-12T03:43:01;99199.97;;;17.18;100.00
9717;BME280;4897;43.570;27.832;2022-07-12T03:45:27;99200.28;;;17.23;100.00
9717;BME280;4897;43.570;27.832;2022-07-12T03:47:54;99189.31;;;17.25;100.00
9717;BME280;4897;43.570;27.832;2022-07-12T03:50:21;99218.16;;;17.40;100.00
9717;BME280;4897;43.570;27.832;2022-07-12T03:52:49;99190.81;;;17.35;100.00
9717;BME280;4897;43.570;27.832;2022-07-12T03:55:16;99204.81;;;17.39;100.00
9717;BME280;4897;43.570;27.832;2022-07-12T03:57:44;99207.88;;;17.52;100.00
9717;BME280;4897;43.570;27.832;2022-07-12T04:00:12;99213.97;;;17.54;100.00
9717;BME280;4897;43.570;27.832;2022-07-12T04:02:39;99191.63;;;17.36;100.00
9717;BME280;4897;43.570;27.832;2022-07-12T04:05:08;99194.03;;;17.31;100.00
9717;BME280;4897;43.570;27.832;2022-07-12T04:07:37;99214.28;;;17.35;100.00
9717;BME280;4897;43.570;27.832;2022-07-12T04:10:06;99181.56;;;17.14;100.00
9717;BME280;4897;43.570;27.832;2022-07-12T04:12:33;99211.06;;;17.31;100.00
9717;BME280;4897;43.570;27.832;2022-07-12T04:15:01;99183.09;;;17.08;100.00
9717;BME280;4897;43.570;27.832;2022-07-12T04:17:28;99209.44;;;17.14;100.00
9717;BME280;4897;43.570;27.832;2022-07-12T04:19:55;99215.97;;;17.28;100.00
9717;BME280;4897;43.570;27.832;2022-07-12T04:22:22;99218.69;;;17.20;100.00
9717;BME280;4897;43.570;27.832;2022-07-12T04:24:49;99221.06;;;17.23;100.00
9717;BME280;4897;43.570;27.832;2022-07-12T04:27:16;99205.81;;;17.38;100.00
9717;BME280;4897;43.570;27.832;2022-07-12T04:29:43;99203.13;;;17.30;100.00
9717;BME280;4897;43.570;27.832;2022-07-12T04:32:15;99203.66;;;17.33;100.00
9717;BME280;4897;43.570;27.832;2022-07-12T04:34:42;99214.09;;;17.52;100.00
9717;BME280;4897;43.570;27.832;2022-07-12T04:37:09;99230.66;;;17.66;100.00
9717;BME280;4897;43.570;27.832;2022-07-12T04:39:36;99225.72;;;17.77;100.00
9717;BME280;4897;43.570;27.832;2022-07-12T04:42:03;99219.66;;;17.75;100.00
9717;BME280;4897;43.570;27.832;2022-07-12T04:44:30;99202.44;;;17.60;100.00
9717;BME280;4897;43.570;27.832;2022-07-12T04:46:58;99212.53;;;17.74;100.00
9717;BME280;4897;43.570;27.832;2022-07-12T04:49:26;99216.25;;;17.81;100.00
9717;BME280;4897;43.570;27.832;2022-07-12T04:51:53;99227.50;;;17.93;100.00
9717;BME280;4897;43.570;27.832;2022-07-12T04:54:20;99237.56;;;18.15;100.00
9717;BME280;4897;43.570;27.832;2022-07-12T04:56:46;99238.31;;;18.31;100.00
9717;BME280;4897;43.570;27.832;2022-07-12T04:59:13;99229.66;;;18.36;100.00
9717;BME280;4897;43.570;27.832;2022-07-12T05:01:40;99240.03;;;18.32;100.00
9717;BME280;4897;43.570;27.832;2022-07-12T05:04:13;99227.50;;;18.31;100.00
9717;BME280;4897;43.570;27.832;2022-07-12T05:06:43;99202.34;;;18.23;100.00
9717;BME280;4897;43.570;27.832;2022-07-12T05:09:11;99237.50;;;18.62;100.00
9717;BME280;4897;43.570;27.832;2022-07-12T05:11:45;99229.38;;;18.62;100.00
9717;BME280;4897;43.570;27.832;2022-07-12T05:14:12;99030.91;;;17.63;100.00
9717;BME280;4897;43.570;27.832;2022-07-12T05:16:39;99203.56;;;18.74;100.00
9717;BME280;4897;43.570;27.832;2022-07-12T05:19:06;99213.13;;;19.07;100.00
9717;BME280;4897;43.570;27.832;2022-07-12T05:21:33;99206.59;;;19.39;100.00
9717;BME280;4897;43.570;27.832;2022-07-12T05:24:02;99236.38;;;19.90;100.00
9717;BME280;4897;43.570;27.832;2022-07-12T05:26:29;99224.69;;;20.34;100.00
9717;BME280;4897;43.570;27.832;2022-07-12T05:28:56;99232.84;;;20.55;100.00
9717;BME280;4897;43.570;27.832;2022-07-12T05:31:23;99228.69;;;20.38;100.00
9717;BME280;4897;43.570;27.832;2022-07-12T05:33:50;99221.97;;;20.55;100.00
9717;BME280;4897;43.570;27.832;2022-07-12T05:36:17;99229.38;;;20.82;100.00
9717;BME280;4897;43.570;27.832;2022-07-12T05:38:44;99224.63;;;21.05;100.00
9717;BME280;4897;43.570;27.832;2022-07-12T05:41:12;99223.69;;;20.98;100.00
9717;BME280;4897;43.570;27.832;2022-07-12T05:43:39;99235.75;;;21.31;100.00
9717;BME280;4897;43.570;27.832;2022-07-12T05:46:06;99224.31;;;21.42;99.88
9717;BME280;4897;43.570;27.832;2022-07-12T05:48:34;99202.94;;;21.67;87.60
9717;BME280;4897;43.570;27.832;2022-07-12T05:51:01;99233.41;;;22.18;87.47
9717;BME280;4897;43.570;27.832;2022-07-12T05:53:42;99226.13;;;21.91;81.04
9717;BME280;4897;43.570;27.832;2022-07-12T05:56:19;99228.41;;;21.60;85.31
9717;BME280;4897;43.570;27.832;2022-07-12T05:58:46;99230.72;;;21.84;85.75
9717;BME280;4897;43.570;27.832;2022-07-12T06:01:13;99217.00;;;21.98;82.02
9717;BME280;4897;43.570;27.832;2022-07-12T06:03:40;99236.28;;;22.03;83.28
9717;BME280;4897;43.570;27.832;2022-07-12T06:06:07;99212.91;;;22.22;79.93
9717;BME280;4897;43.570;27.832;2022-07-12T06:08:34;99187.41;;;22.36;74.95
9717;BME280;4897;43.570;27.832;2022-07-12T06:11:01;99235.38;;;22.97;73.36
9717;BME280;4897;43.570;27.832;2022-07-12T06:13:29;99219.84;;;22.91;71.54
9717;BME280;4897;43.570;27.832;2022-07-12T06:15:56;99234.16;;;23.07;72.54
9717;BME280;4897;43.570;27.832;2022-07-12T06:18:24;99214.88;;;23.41;70.51
9717;BME280;4897;43.570;27.832;2022-07-12T06:20:51;99209.00;;;23.57;67.49
9717;BME280;4897;43.570;27.832;2022-07-12T06:23:18;99138.06;;;23.04;65.64
9717;BME280;4897;43.570;27.832;2022-07-12T06:25:45;99237.72;;;23.00;69.44
9717;BME280;4897;43.570;27.832;2022-07-12T06:28:12;99223.47;;;23.25;70.87
9717;BME280;4897;43.570;27.832;2022-07-12T06:30:40;99156.50;;;23.55;64.42
9717;BME280;4897;43.570;27.832;2022-07-12T06:33:07;99220.09;;;23.68;63.02
9717;BME280;4897;43.570;27.832;2022-07-12T06:35:34;99225.59;;;23.42;67.71
9717;BME280;4897;43.570;27.832;2022-07-12T06:40:28;99238.78;;;23.19;67.16
9717;BME280;4897;43.570;27.832;2022-07-12T06:42:55;99219.63;;;22.73;68.94
9717;BME280;4897;43.570;27.832;2022-07-12T06:45:25;99228.78;;;22.12;77.88
9717;BME280;4897;43.570;27.832;2022-07-12T06:47:54;99201.53;;;21.43;85.99
9717;BME280;4897;43.570;27.832;2022-07-12T06:50:21;99217.63;;;21.45;87.23
9717;BME280;4897;43.570;27.832;2022-07-12T06:52:48;99222.88;;;21.46;87.91
9717;BME280;4897;43.570;27.832;2022-07-12T06:55:15;99224.56;;;21.47;92.11
9717;BME280;4897;43.570;27.832;2022-07-12T06:57:42;99221.16;;;21.39;97.35
9717;BME280;4897;43.570;27.832;2022-07-12T07:00:09;99198.63;;;21.24;94.46
9717;BME280;4897;43.570;27.832;2022-07-12T07:02:37;99217.44;;;21.46;95.79
9717;BME280;4897;43.570;27.832;2022-07-12T07:05:07;99223.38;;;21.57;89.02
9717;BME280;4897;43.570;27.832;2022-07-12T07:07:34;99219.56;;;21.51;87.69
9717;BME280;4897;43.570;27.832;2022-07-12T07:10:01;99208.50;;;21.53;87.54
9717;BME280;4897;43.570;27.832;2022-07-12T07:12:28;99225.06;;;21.58;84.93
9717;BME280;4897;43.570;27.832;2022-07-12T07:14:55;99222.28;;;21.79;87.88
9717;BME280;4897;43.570;27.832;2022-07-12T07:17:22;99216.47;;;21.82;89.58
9717;BME280;4897;43.570;27.832;2022-07-12T07:19:49;99209.00;;;21.90;85.38
9717;BME280;4897;43.570;27.832;2022-07-12T07:22:17;99203.16;;;22.00;81.40
9717;BME280;4897;43.570;27.832;2022-07-12T07:24:44;99231.53;;;22.18;80.12
9717;BME280;4897;43.570;27.832;2022-07-12T07:27:12;99230.66;;;22.05;82.42
9717;BME280;4897;43.570;27.832;2022-07-12T07:29:39;99179.13;;;21.76;83.75
9717;BME280;4897;43.570;27.832;2022-07-12T07:32:22;99218.72;;;22.12;79.96
9717;BME280;4897;43.570;27.832;2022-07-12T07:34:49;99216.03;;;22.19;84.11
9717;BME280;4897;43.570;27.832;2022-07-12T07:37:17;99170.09;;;22.09;81.36
9717;BME280;4897;43.570;27.832;2022-07-12T07:39:44;99194.25;;;22.19;77.06
9717;BME280;4897;43.570;27.832;2022-07-12T07:42:11;99214.38;;;22.78;75.36
9717;BME280;4897;43.570;27.832;2022-07-12T07:44:38;99205.88;;;23.40;71.27
9717;BME280;4897;43.570;27.832;2022-07-12T07:47:05;99204.97;;;24.43;62.54
9717;BME280;4897;43.570;27.832;2022-07-12T07:49:32;99193.94;;;26.17;53.49
9717;BME280;4897;43.570;27.832;2022-07-12T07:51:59;99196.78;;;26.58;48.62
9717;BME280;4897;43.570;27.832;2022-07-12T07:54:30;99198.47;;;26.89;47.12
9717;BME280;4897;43.570;27.832;2022-07-12T07:57:03;99201.50;;;27.40;45.91
9717;BME280;4897;43.570;27.832;2022-07-12T07:59:33;99173.25;;;28.26;43.20
9717;BME280;4897;43.570;27.832;2022-07-12T08:01:59;99191.66;;;27.21;44.35
9717;BME280;4897;43.570;27.832;2022-07-12T08:04:27;99202.63;;;27.33;45.11
9717;BME280;4897;43.570;27.832;2022-07-12T08:06:53;99191.91;;;27.31;44.69
9717;BME280;4897;43.570;27.832;2022-07-12T08:09:22;99183.34;;;27.86;43.47
9717;BME280;4897;43.570;27.832;2022-07-12T08:11:50;99197.56;;;28.17;42.07
9717;BME280;4897;43.570;27.832;2022-07-12T08:14:17;99181.25;;;28.39;41.80
9717;BME280;4897;43.570;27.832;2022-07-12T08:16:44;99201.56;;;28.78;40.36
9717;BME280;4897;43.570;27.832;2022-07-12T08:19:14;99200.00;;;28.42;41.93
9717;BME280;4897;43.570;27.832;2022-07-12T08:21:40;99196.66;;;28.40;42.11
9717;BME280;4897;43.570;27.832;2022-07-12T08:24:07;99171.81;;;28.35;41.47
9717;BME280;4897;43.570;27.832;2022-07-12T08:26:34;99204.16;;;28.05;42.63
9717;BME280;4897;43.570;27.832;2022-07-12T08:29:02;99167.88;;;29.15;40.69
9717;BME280;4897;43.570;27.832;2022-07-12T08:31:29;99162.47;;;29.20;40.21
9717;BME280;4897;43.570;27.832;2022-07-12T08:33:56;99192.41;;;29.34;39.68
9717;BME280;4897;43.570;27.832;2022-07-12T08:36:23;99199.63;;;29.35;39.72
9717;BME280;4897;43.570;27.832;2022-07-12T08:38:50;99182.28;;;28.50;41.15
9717;BME280;4897;43.570;27.832;2022-07-12T08:41:17;99175.22;;;29.60;39.24
9717;BME280;4897;43.570;27.832;2022-07-12T08:43:47;99144.22;;;29.86;38.85
9717;BME280;4897;43.570;27.832;2022-07-12T08:46:18;99185.25;;;29.66;39.36
9717;BME280;4897;43.570;27.832;2022-07-12T08:48:45;99198.84;;;30.70;37.66
9717;BME280;4897;43.570;27.832;2022-07-12T08:51:13;99169.06;;;30.08;38.20
9717;BME280;4897;43.570;27.832;2022-07-12T08:53:40;99188.50;;;29.30;39.79
9717;BME280;4897;43.570;27.832;2022-07-12T08:56:30;99181.38;;;29.67;38.80
9717;BME280;4897;43.570;27.832;2022-07-12T08:59:16;99186.22;;;29.93;38.28
9717;BME280;4897;43.570;27.832;2022-07-12T09:01:47;99165.84;;;30.59;37.41
9717;BME280;4897;43.570;27.832;2022-07-12T09:04:16;99178.00;;;30.58;37.59
9717;BME280;4897;43.570;27.832;2022-07-12T09:06:44;99170.22;;;30.33;37.51
9717;BME280;4897;43.570;27.832;2022-07-12T09:09:12;99187.69;;;30.00;38.58
9717;BME280;4897;43.570;27.832;2022-07-12T09:11:52;99175.81;;;30.00;38.16
9717;BME280;4897;43.570;27.832;2022-07-12T09:14:19;99165.38;;;30.02;37.92
9717;BME280;4897;43.570;27.832;2022-07-12T09:17:00;99181.06;;;29.30;38.86
9717;BME280;4897;43.570;27.832;2022-07-12T09:19:34;99163.09;;;29.61;38.54
9717;BME280;4897;43.570;27.832;2022-07-12T09:22:00;99177.19;;;30.19;38.04
9717;BME280;4897;43.570;27.832;2022-07-12T09:24:27;99151.81;;;29.62;38.54
9717;BME280;4897;43.570;27.832;2022-07-12T09:26:57;99171.56;;;30.52;37.46
9717;BME280;4897;43.570;27.832;2022-07-12T09:29:24;99176.53;;;30.77;36.25
9717;BME280;4897;43.570;27.832;2022-07-12T09:31:52;99162.28;;;31.12;35.51
9717;BME280;4897;43.570;27.832;2022-07-12T09:34:38;99153.63;;;32.80;34.04
9717;BME280;4897;43.570;27.832;2022-07-12T09:37:23;99145.03;;;32.82;31.83
9717;BME280;4897;43.570;27.832;2022-07-12T09:39:54;99166.84;;;31.28;33.76
9717;BME280;4897;43.570;27.832;2022-07-12T09:42:21;99152.53;;;32.09;34.61
9717;BME280;4897;43.570;27.832;2022-07-12T09:44:49;99133.75;;;31.38;34.94
9717;BME280;4897;43.570;27.832;2022-07-12T09:47:16;99167.44;;;29.57;38.03
9717;BME280;4897;43.570;27.832;2022-07-12T09:49:45;99168.91;;;30.62;35.71
9717;BME280;4897;43.570;27.832;2022-07-12T09:52:20;99137.19;;;32.49;33.61
9717;BME280;4897;43.570;27.832;2022-07-12T09:54:50;99143.16;;;33.08;33.53
9717;BME280;4897;43.570;27.832;2022-07-12T09:57:20;99132.47;;;31.92;35.42
9717;BME280;4897;43.570;27.832;2022-07-12T09:59:49;99148.97;;;30.82;35.93
9717;BME280;4897;43.570;27.832;2022-07-12T10:02:18;99077.59;;;31.69;34.64
9717;BME280;4897;43.570;27.832;2022-07-12T10:04:47;99146.00;;;32.41;34.96
9717;BME280;4897;43.570;27.832;2022-07-12T10:07:23;99165.59;;;34.07;32.85
9717;BME280;4897;43.570;27.832;2022-07-12T10:09:52;99151.75;;;33.76;32.59
9717;BME280;4897;43.570;27.832;2022-07-12T10:12:22;99109.63;;;33.14;33.03
9717;BME280;4897;43.570;27.832;2022-07-12T10:14:55;99148.56;;;34.33;31.70
9717;BME280;4897;43.570;27.832;2022-07-12T10:17:26;99121.66;;;32.38;33.90
9717;BME280;4897;43.570;27.832;2022-07-12T10:20:16;99146.97;;;30.99;36.54
9717;BME280;4897;43.570;27.832;2022-07-12T10:22:44;99128.81;;;29.35;40.53
9717;BME280;4897;43.570;27.832;2022-07-12T10:25:31;99131.16;;;28.37;43.87
9717;BME280;4897;43.570;27.832;2022-07-12T10:27:58;99133.94;;;30.41;40.21
9717;BME280;4897;43.570;27.832;2022-07-12T10:30:25;99115.19;;;32.17;37.49
9717;BME280;4897;43.570;27.832;2022-07-12T10:32:54;99130.28;;;31.52;37.75
9717;BME280;4897;43.570;27.832;2022-07-12T10:35:25;99111.09;;;29.64;40.83
9717;BME280;4897;43.570;27.832;2022-07-12T10:38:14;99142.22;;;29.65;43.27
9717;BME280;4897;43.570;27.832;2022-07-12T10:40:43;99142.38;;;31.10;39.63
9717;BME280;4897;43.570;27.832;2022-07-12T10:43:21;99104.59;;;31.94;37.30
9717;BME280;4897;43.570;27.832;2022-07-12T10:46:22;99114.25;;;34.04;34.25
9717;BME280;4897;43.570;27.832;2022-07-12T10:48:51;99118.91;;;35.16;31.33
9717;BME280;4897;43.570;27.832;2022-07-12T10:51:19;99113.19;;;35.94;30.38
9717;BME280;4897;43.570;27.832;2022-07-12T10:53:47;99129.72;;;35.52;31.28
9717;BME280;4897;43.570;27.832;2022-07-12T10:56:20;99123.66;;;34.03;33.30
9717;BME280;4897;43.570;27.832;2022-07-12T10:58:50;99122.25;;;34.16;33.65
9717;BME280;4897;43.570;27.832;2022-07-12T11:01:20;99123.00;;;34.85;32.59
9717;BME280;4897;43.570;27.832;2022-07-12T11:03:48;99121.38;;;34.79;32.13
9717;BME280;4897;43.570;27.832;2022-07-12T11:06:17;99114.81;;;34.60;32.27
9717;BME280;4897;43.570;27.832;2022-07-12T11:08:50;99114.34;;;35.88;31.10
9717;BME280;4897;43.570;27.832;2022-07-12T11:11:18;99114.25;;;35.93;30.53
9717;BME280;4897;43.570;27.832;2022-07-12T11:13:46;99093.53;;;32.96;33.56
9717;BME280;4897;43.570;27.832;2022-07-12T11:16:13;99105.34;;;31.84;35.53
9717;BME280;4897;43.570;27.832;2022-07-12T11:18:44;99130.38;;;30.46;38.43
9717;BME280;4897;43.570;27.832;2022-07-12T11:21:11;99123.06;;;28.75;42.63
9717;BME280;4897;43.570;27.832;2022-07-12T11:23:39;99137.81;;;28.01;45.85
9717;BME280;4897;43.570;27.832;2022-07-12T11:26:10;99119.16;;;27.11;48.79
9717;BME280;4897;43.570;27.832;2022-07-12T11:28:45;99123.81;;;27.10;51.74
9717;BME280;4897;43.570;27.832;2022-07-12T11:31:16;99085.25;;;26.52;55.23
9717;BME280;4897;43.570;27.832;2022-07-12T11:33:48;99126.16;;;26.72;57.39
9717;BME280;4897;43.570;27.832;2022-07-12T11:36:25;99141.28;;;26.45;58.77
9717;BME280;4897;43.570;27.832;2022-07-12T11:38:53;99133.59;;;26.35;59.66
9717;BME280;4897;43.570;27.832;2022-07-12T11:41:21;99141.06;;;26.58;57.81
9717;BME280;4897;43.570;27.832;2022-07-12T11:43:50;99147.75;;;26.80;54.02
9717;BME280;4897;43.570;27.832;2022-07-12T11:46:17;99139.75;;;27.54;51.68
9717;BME280;4897;43.570;27.832;2022-07-12T11:48:47;99131.47;;;29.47;44.53
9717;BME280;4897;43.570;27.832;2022-07-12T11:51:14;99128.19;;;29.00;45.68
9717;BME280;4897;43.570;27.832;2022-07-12T11:53:43;99126.59;;;28.87;45.52
9717;BME280;4897;43.570;27.832;2022-07-12T11:56:17;99081.78;;;28.30;46.16
9717;BME280;4897;43.570;27.832;2022-07-12T11:58:56;99121.72;;;29.39;44.13
9717;BME280;4897;43.570;27.832;2022-07-12T12:01:24;99123.91;;;29.20;42.20
9717;BME280;4897;43.570;27.832;2022-07-12T12:03:52;99121.78;;;29.99;40.94
9717;BME280;4897;43.570;27.832;2022-07-12T12:06:22;99111.88;;;29.81;40.49
9717;BME280;4897;43.570;27.832;2022-07-12T12:08:50;99129.44;;;28.92;43.78
9717;BME280;4897;43.570;27.832;2022-07-12T12:11:26;99129.53;;;28.81;44.56
9717;BME280;4897;43.570;27.832;2022-07-12T12:13:57;99124.00;;;28.64;45.66
9717;BME280;4897;43.570;27.832;2022-07-12T12:16:25;99110.75;;;28.78;44.74
9717;BME280;4897;43.570;27.832;2022-07-12T12:18:54;99121.28;;;29.14;44.44
9717;BME280;4897;43.570;27.832;2022-07-12T12:21:28;99116.22;;;29.77;43.01
9717;BME280;4897;43.570;27.832;2022-07-12T12:24:19;99104.25;;;30.53;40.53
9717;BME280;4897;43.570;27.832;2022-07-12T12:26:46;99128.88;;;30.17;39.29
9717;BME280;4897;43.570;27.832;2022-07-12T12:29:14;99074.06;;;29.05;41.26
9717;BME280;4897;43.570;27.832;2022-07-12T12:31:41;99108.78;;;28.33;44.70
9717;BME280;4897;43.570;27.832;2022-07-12T12:34:22;99113.16;;;28.18;45.49
9717;BME280;4897;43.570;27.832;2022-07-12T12:36:52;99028.22;;;29.54;41.65
9717;BME280;4897;43.570;27.832;2022-07-12T12:39:29;99101.63;;;32.15;37.56
9717;BME280;4897;43.570;27.832;2022-07-12T12:41:56;99088.53;;;33.63;34.27
9717;BME280;4897;43.570;27.832;2022-07-12T12:44:24;99081.84;;;34.43;31.81
9717;BME280;4897;43.570;27.832;2022-07-12T12:46:55;99070.53;;;32.85;34.09
9717;BME280;4897;43.570;27.832;2022-07-12T12:49:46;99106.22;;;30.85;37.29
9717;BME280;4897;43.570;27.832;2022-07-12T12:52:16;99108.41;;;30.83;37.96
9717;BME280;4897;43.570;27.832;2022-07-12T12:54:43;99097.56;;;32.33;35.73
9717;BME280;4897;43.570;27.832;2022-07-12T12:57:16;99093.63;;;31.67;36.58
9717;BME280;4897;43.570;27.832;2022-07-12T12:59:44;99075.50;;;33.39;34.54
9717;BME280;4897;43.570;27.832;2022-07-12T13:02:11;99099.88;;;34.46;32.07
9717;BME280;4897;43.570;27.832;2022-07-12T13:04:39;99097.72;;;34.33;32.68
9717;BME280;4897;43.570;27.832;2022-07-12T13:07:06;99082.75;;;35.50;31.23
9717;BME280;4897;43.570;27.832;2022-07-12T13:09:33;99088.56;;;36.01;30.19
9717;BME280;4897;43.570;27.832;2022-07-12T13:12:00;99080.09;;;36.53;29.93
9717;BME280;4897;43.570;27.832;2022-07-12T13:14:28;99081.34;;;37.81;27.90
9717;BME280;4897;43.570;27.832;2022-07-12T13:16:57;99078.66;;;39.46;26.52
9717;BME280;4897;43.570;27.832;2022-07-12T13:19:24;99073.31;;;39.58;25.99